createdAt,value
2017-12-28T00:00:27.354Z,94.84
2017-12-28T00:01:27.368Z,94.65
2017-12-28T00:02:27.384Z,95.03
2017-12-28T00:03:27.401Z,94.37
2017-12-28T00:04:27.419Z,94.27
2017-12-28T00:05:27.440Z,94.42
2017-12-28T00:06:27.448Z,94.93
2017-12-28T00:07:27.465Z,94.46
2017-12-28T00:08:27.481Z,94.32
2017-12-28T00:09:27.497Z,94.74
2017-12-28T00:10:27.513Z,94.79
2017-12-28T00:11:27.529Z,94.74
2017-12-28T00:12:27.544Z,94.56
2017-12-28T00:13:27.559Z,95.22
2017-12-28T00:14:27.575Z,94.84
2017-12-28T00:15:27.593Z,94.84
2017-12-28T00:16:27.607Z,94.84
2017-12-28T00:17:27.624Z,94.56
2017-12-28T00:18:27.639Z,94.65
2017-12-28T00:19:27.655Z,94.84
2017-12-28T00:20:27.672Z,94.37
2017-12-28T00:21:27.687Z,94.84
2017-12-28T00:22:27.703Z,94.65
2017-12-28T00:23:27.720Z,94.46
2017-12-28T00:24:27.735Z,94.56
2017-12-28T00:25:27.751Z,94.65
2017-12-28T00:26:27.766Z,95.03
2017-12-28T00:27:27.782Z,95.22
2017-12-28T00:28:27.799Z,94.74
2017-12-28T00:29:27.815Z,94.56
2017-12-28T00:30:27.834Z,94.65
2017-12-28T00:31:27.848Z,94.74
2017-12-28T00:32:27.863Z,94.08
2017-12-28T00:33:27.877Z,94.18
2017-12-28T00:34:27.894Z,94.65
2017-12-28T00:35:27.910Z,94.65
2017-12-28T00:36:27.926Z,94.56
2017-12-28T00:37:27.942Z,94.56
2017-12-28T00:38:27.958Z,94.79
2017-12-28T00:39:28.023Z,94.70
2017-12-28T00:40:27.990Z,94.79
2017-12-28T00:41:28.006Z,94.51
2017-12-28T00:42:28.021Z,95.50
2017-12-28T00:43:28.037Z,94.70
2017-12-28T00:44:28.054Z,94.56
2017-12-28T00:45:28.074Z,94.56
2017-12-28T00:46:28.085Z,94.56
2017-12-28T00:47:28.101Z,94.46
2017-12-28T00:48:28.118Z,94.79
2017-12-28T00:49:28.133Z,94.65
2017-12-28T00:50:28.148Z,94.93
2017-12-28T00:51:28.165Z,95.03
2017-12-28T00:52:28.182Z,95.03
2017-12-28T00:53:28.196Z,94.93
2017-12-28T00:54:28.213Z,95.22
2017-12-28T00:55:28.230Z,95.22
2017-12-28T00:56:28.245Z,94.37
2017-12-28T00:57:28.261Z,95.79
2017-12-28T00:58:28.277Z,95.12
2017-12-28T00:59:28.299Z,94.93
2017-12-28T01:00:28.310Z,94.51
2017-12-28T01:01:28.325Z,94.74
2017-12-28T01:02:28.342Z,95.31
2017-12-28T01:03:28.356Z,94.84
2017-12-28T01:04:28.374Z,94.60
2017-12-28T01:05:28.388Z,94.46
2017-12-28T01:06:28.404Z,94.46
2017-12-28T01:07:28.421Z,95.22
2017-12-28T01:08:28.437Z,94.84
2017-12-28T01:09:28.453Z,95.22
2017-12-28T01:10:28.469Z,94.93
2017-12-28T01:11:28.484Z,94.70
2017-12-28T01:12:28.502Z,94.84
2017-12-28T01:13:28.517Z,94.56
2017-12-28T01:14:28.535Z,94.60
2017-12-28T01:15:28.549Z,94.32
2017-12-28T01:16:28.564Z,94.98
2017-12-28T01:17:28.579Z,94.32
2017-12-28T01:18:28.596Z,94.42
2017-12-28T01:19:28.613Z,94.98
2017-12-28T01:20:28.629Z,95.31
2017-12-28T01:21:28.644Z,94.84
2017-12-28T01:22:28.661Z,94.46
2017-12-28T01:23:28.675Z,95.26
2017-12-28T01:24:28.692Z,94.98
2017-12-28T01:25:28.708Z,95.07
2017-12-28T01:26:28.723Z,94.70
2017-12-28T01:27:28.739Z,94.79
2017-12-28T01:28:28.756Z,94.04
2017-12-28T01:29:28.772Z,94.13
2017-12-28T01:30:28.788Z,94.42
2017-12-28T01:31:28.802Z,94.23
2017-12-28T01:32:28.820Z,93.94
2017-12-28T01:33:28.835Z,94.04
2017-12-28T01:34:28.850Z,94.42
2017-12-28T01:35:28.867Z,94.04
2017-12-28T01:36:28.884Z,93.75
2017-12-28T01:37:28.899Z,94.23
2017-12-28T01:38:28.915Z,93.84
2017-12-28T01:39:28.931Z,94.32
2017-12-28T01:40:28.947Z,94.60
2017-12-28T01:41:28.962Z,94.60
2017-12-28T01:42:28.977Z,94.23
2017-12-28T01:43:28.993Z,94.70
2017-12-28T01:44:29.009Z,94.70
2017-12-28T01:45:29.026Z,95.26
2017-12-28T01:46:29.041Z,94.70
2017-12-28T01:47:29.058Z,94.70
2017-12-28T01:48:29.073Z,94.89
2017-12-28T01:49:29.092Z,95.65
2017-12-28T01:50:29.104Z,95.36
2017-12-28T01:51:29.120Z,95.65
2017-12-28T01:52:29.136Z,95.36
2017-12-28T01:53:29.151Z,95.36
2017-12-28T01:54:29.170Z,95.17
2017-12-28T01:55:29.184Z,96.22
2017-12-28T01:56:29.200Z,95.65
2017-12-28T01:57:29.214Z,96.41
2017-12-28T01:58:29.230Z,96.59
2017-12-28T01:59:29.247Z,96.50
2017-12-28T02:00:29.263Z,96.78
2017-12-28T02:01:29.277Z,95.93
2017-12-28T02:02:29.294Z,96.69
2017-12-28T02:03:29.310Z,96.03
2017-12-28T02:04:29.327Z,95.65
2017-12-28T02:05:29.340Z,96.12
2017-12-28T02:06:29.356Z,96.22
2017-12-28T02:07:29.372Z,96.50
2017-12-28T02:08:29.389Z,97.64
2017-12-28T02:09:29.407Z,98.02
2017-12-28T02:10:29.421Z,98.11
2017-12-28T02:11:29.436Z,97.35
2017-12-28T02:12:29.454Z,97.83
2017-12-28T02:13:29.466Z,98.49
2017-12-28T02:14:29.483Z,97.83
2017-12-28T02:15:29.500Z,98.21
2017-12-28T02:16:29.515Z,98.49
2017-12-28T02:17:29.531Z,97.54
2017-12-28T02:18:29.546Z,97.45
2017-12-28T02:19:29.561Z,97.73
2017-12-28T02:20:29.580Z,96.78
2017-12-28T02:21:29.593Z,96.69
2017-12-28T02:22:29.609Z,96.41
2017-12-28T02:23:29.626Z,97.07
2017-12-28T02:24:29.642Z,98.39
2017-12-28T02:25:29.664Z,98.49
2017-12-28T02:26:29.674Z,98.68
2017-12-28T02:27:29.695Z,98.87
2017-12-28T02:28:29.708Z,98.68
2017-12-28T02:29:29.721Z,98.68
2017-12-28T02:30:29.736Z,98.49
2017-12-28T02:31:29.753Z,98.11
2017-12-28T02:32:29.768Z,98.21
2017-12-28T02:33:29.784Z,98.30
2017-12-28T02:34:29.800Z,98.21
2017-12-28T02:35:29.817Z,98.30
2017-12-28T02:36:29.833Z,98.30
2017-12-28T02:37:29.848Z,98.02
2017-12-28T02:38:29.863Z,98.02
2017-12-28T02:39:29.879Z,97.54
2017-12-28T02:40:29.898Z,96.88
2017-12-28T02:41:29.912Z,96.12
2017-12-28T02:42:29.926Z,96.50
2017-12-28T02:43:29.944Z,97.26
2017-12-28T02:44:29.959Z,97.07
2017-12-28T02:45:29.976Z,96.88
2017-12-28T02:46:29.991Z,96.78
2017-12-28T02:47:30.009Z,97.35
2017-12-28T02:48:30.024Z,97.64
2017-12-28T02:49:30.040Z,97.64
2017-12-28T02:50:30.055Z,97.64
2017-12-28T02:51:30.072Z,97.83
2017-12-28T02:52:30.087Z,97.54
2017-12-28T02:53:30.101Z,97.64
2017-12-28T02:54:30.124Z,97.92
2017-12-28T02:55:30.134Z,98.58
2017-12-28T02:56:30.150Z,98.77
2017-12-28T02:57:30.167Z,98.49
2017-12-28T02:58:30.181Z,98.30
2017-12-28T02:59:30.200Z,98.11
2017-12-28T03:00:30.214Z,98.96
2017-12-28T03:01:30.229Z,98.68
2017-12-28T03:02:30.246Z,98.87
2017-12-28T03:03:30.262Z,98.68
2017-12-28T03:04:30.278Z,98.77
2017-12-28T03:05:30.292Z,99.15
2017-12-28T03:06:30.308Z,98.96
2017-12-28T03:07:30.324Z,98.21
2017-12-28T03:08:30.340Z,98.39
2017-12-28T03:09:30.354Z,98.21
2017-12-28T03:10:30.372Z,98.82
2017-12-28T03:11:30.487Z,98.77
2017-12-28T03:12:30.403Z,99.44
2017-12-28T03:13:30.419Z,98.68
2017-12-28T03:14:30.434Z,98.49
2017-12-28T03:15:30.450Z,98.72
2017-12-28T03:16:30.466Z,98.58
2017-12-28T03:17:30.481Z,98.77
2017-12-28T03:18:30.496Z,98.39
2017-12-28T03:19:30.514Z,98.87
2017-12-28T03:20:30.528Z,98.82
2017-12-28T03:21:30.543Z,99.10
2017-12-28T03:22:30.559Z,99.48
2017-12-28T03:23:30.575Z,99.29
2017-12-28T03:24:30.591Z,99.58
2017-12-28T03:25:30.606Z,99.67
2017-12-28T03:26:30.623Z,99.77
2017-12-28T03:27:30.637Z,99.39
2017-12-28T03:28:30.655Z,99.77
2017-12-28T03:29:30.669Z,99.99
2017-12-28T03:30:30.686Z,99.99
2017-12-28T03:31:30.700Z,99.99
2017-12-28T03:32:30.717Z,99.96
2017-12-28T03:33:30.731Z,99.99
2017-12-28T03:34:30.749Z,99.99
2017-12-28T03:35:30.764Z,99.99
2017-12-28T03:36:30.780Z,99.96
2017-12-28T03:37:30.794Z,99.99
2017-12-28T03:38:30.809Z,99.99
2017-12-28T03:39:30.826Z,99.99
2017-12-28T03:40:30.842Z,99.99
2017-12-28T03:41:30.856Z,99.99
2017-12-28T03:42:30.873Z,99.99
2017-12-28T03:43:30.889Z,99.99
2017-12-28T03:44:30.908Z,99.99
2017-12-28T03:45:30.923Z,99.99
2017-12-28T03:46:30.934Z,99.99
2017-12-28T03:47:30.950Z,99.99
2017-12-28T03:48:30.969Z,99.99
2017-12-28T03:49:30.981Z,99.99
2017-12-28T03:50:30.997Z,99.99
2017-12-28T03:51:31.036Z,99.99
2017-12-28T03:52:31.030Z,99.99
2017-12-28T03:53:31.043Z,99.99
2017-12-28T03:54:31.062Z,99.99
2017-12-28T03:55:31.075Z,99.99
2017-12-28T03:56:31.092Z,99.99
2017-12-28T03:57:31.106Z,99.99
2017-12-28T03:58:31.123Z,99.99
2017-12-28T03:59:31.138Z,99.99
2017-12-28T04:00:31.154Z,99.99
2017-12-28T04:01:31.168Z,99.99
2017-12-28T04:02:31.188Z,99.99
2017-12-28T04:03:31.199Z,99.99
2017-12-28T04:04:31.215Z,99.99
2017-12-28T04:05:31.233Z,99.99
2017-12-28T04:06:31.247Z,99.99
2017-12-28T04:07:31.262Z,99.99
2017-12-28T04:08:31.280Z,99.99
2017-12-28T04:09:31.292Z,99.99
2017-12-28T04:10:31.310Z,99.99
2017-12-28T04:11:31.326Z,99.96
2017-12-28T04:12:31.341Z,99.99
2017-12-28T04:13:31.356Z,99.99
2017-12-28T04:14:31.371Z,99.99
2017-12-28T04:15:31.390Z,99.99
2017-12-28T04:16:31.402Z,99.96
2017-12-28T04:17:31.418Z,99.99
2017-12-28T04:18:31.435Z,99.99
2017-12-28T04:19:31.449Z,99.99
2017-12-28T04:20:31.466Z,99.99
2017-12-28T04:21:31.480Z,99.99
2017-12-28T04:22:31.495Z,99.99
2017-12-28T04:23:31.511Z,99.99
2017-12-28T04:24:31.528Z,99.99
2017-12-28T04:25:31.541Z,99.99
2017-12-28T04:26:31.557Z,99.99
2017-12-28T04:27:31.573Z,99.99
2017-12-28T04:28:31.589Z,99.99
2017-12-28T04:29:31.604Z,99.99
2017-12-28T04:30:31.620Z,99.99
2017-12-28T04:31:31.635Z,99.99
2017-12-28T04:32:31.651Z,99.99
2017-12-28T04:33:31.666Z,99.99
2017-12-28T04:34:31.682Z,99.99
2017-12-28T04:35:31.698Z,99.99
2017-12-28T04:36:31.712Z,99.99
2017-12-28T04:37:31.729Z,99.99
2017-12-28T04:38:31.744Z,99.96
2017-12-28T04:39:31.760Z,99.99
2017-12-28T04:40:31.774Z,99.86
2017-12-28T04:41:31.790Z,99.39
2017-12-28T04:42:31.807Z,99.48
2017-12-28T04:43:31.822Z,99.67
2017-12-28T04:44:31.837Z,99.58
2017-12-28T04:45:31.852Z,99.67
2017-12-28T04:46:31.868Z,99.67
2017-12-28T04:47:31.885Z,98.63
2017-12-28T04:48:31.899Z,99.10
2017-12-28T04:49:31.914Z,99.01
2017-12-28T04:50:31.930Z,99.39
2017-12-28T04:51:31.946Z,99.10
2017-12-28T04:52:32.211Z,99.58
2017-12-28T04:53:31.979Z,99.48
2017-12-28T04:54:31.993Z,99.48
2017-12-28T04:55:32.008Z,99.67
2017-12-28T04:56:32.274Z,99.77
2017-12-28T04:57:32.038Z,99.77
2017-12-28T04:58:32.055Z,99.86
2017-12-28T04:59:32.070Z,99.48
2017-12-28T05:00:32.085Z,99.99
2017-12-28T05:01:32.106Z,99.99
2017-12-28T05:02:32.116Z,99.86
2017-12-28T05:03:32.132Z,99.96
2017-12-28T05:04:32.148Z,99.96
2017-12-28T05:05:32.163Z,99.99
2017-12-28T05:06:32.178Z,99.99
2017-12-28T05:07:32.194Z,99.77
2017-12-28T05:08:32.209Z,99.86
2017-12-28T05:09:32.225Z,99.58
2017-12-28T05:10:32.240Z,99.86
2017-12-28T05:11:32.256Z,99.99
2017-12-28T05:12:32.273Z,99.39
2017-12-28T05:13:32.286Z,99.96
2017-12-28T05:14:32.303Z,99.39
2017-12-28T05:15:32.318Z,99.20
2017-12-28T05:16:32.335Z,99.67
2017-12-28T05:17:32.349Z,99.96
2017-12-28T05:18:32.365Z,99.48
2017-12-28T05:19:32.380Z,99.58
2017-12-28T05:20:32.396Z,99.58
2017-12-28T05:21:32.411Z,99.67
2017-12-28T05:22:32.427Z,99.39
2017-12-28T05:23:32.443Z,99.48
2017-12-28T05:24:32.459Z,99.86
2017-12-28T05:25:32.473Z,99.58
2017-12-28T05:26:32.488Z,99.20
2017-12-28T05:27:32.505Z,99.29
2017-12-28T05:28:32.521Z,99.20
2017-12-28T05:29:32.535Z,99.20
2017-12-28T05:30:32.550Z,99.39
2017-12-28T05:31:32.566Z,99.20
2017-12-28T05:32:32.583Z,99.20
2017-12-28T05:33:32.597Z,99.86
2017-12-28T05:34:32.614Z,99.29
2017-12-28T05:35:32.628Z,99.29
2017-12-28T05:36:32.645Z,99.01
2017-12-28T05:37:32.660Z,98.82
2017-12-28T05:38:32.675Z,98.72
2017-12-28T05:39:32.690Z,98.06
2017-12-28T05:40:32.707Z,98.35
2017-12-28T05:41:32.720Z,98.06
2017-12-28T05:42:32.738Z,98.54
2017-12-28T05:43:32.754Z,98.16
2017-12-28T05:44:32.769Z,98.16
2017-12-28T05:45:32.784Z,98.44
2017-12-28T05:46:32.799Z,98.44
2017-12-28T05:47:32.816Z,98.63
2017-12-28T05:48:32.831Z,98.16
2017-12-28T05:49:32.845Z,98.44
2017-12-28T05:50:32.862Z,98.06
2017-12-28T05:51:32.886Z,98.63
2017-12-28T05:52:32.893Z,98.44
2017-12-28T05:53:32.909Z,98.35
2017-12-28T05:54:32.923Z,98.63
2017-12-28T05:55:32.947Z,97.97
2017-12-28T05:56:32.954Z,97.30
2017-12-28T05:57:32.970Z,97.97
2017-12-28T05:58:32.985Z,97.68
2017-12-28T05:59:33.003Z,97.97
2017-12-28T06:00:33.018Z,97.59
2017-12-28T06:01:33.032Z,97.59
2017-12-28T06:02:33.048Z,97.78
2017-12-28T06:03:33.064Z,97.78
2017-12-28T06:04:33.080Z,97.78
2017-12-28T06:05:33.093Z,96.92
2017-12-28T06:06:33.110Z,97.11
2017-12-28T06:07:33.124Z,97.49
2017-12-28T06:08:33.140Z,98.44
2017-12-28T06:09:33.157Z,98.16
2017-12-28T06:10:33.172Z,98.54
2017-12-28T06:11:33.187Z,98.16
2017-12-28T06:12:33.203Z,98.25
2017-12-28T06:13:33.216Z,98.16
2017-12-28T06:14:33.232Z,97.68
2017-12-28T06:15:33.251Z,97.68
2017-12-28T06:16:33.263Z,98.44
2017-12-28T06:17:33.279Z,98.16
2017-12-28T06:18:33.293Z,98.35
2017-12-28T06:19:33.309Z,98.25
2017-12-28T06:20:33.326Z,97.97
2017-12-28T06:21:33.342Z,97.68
2017-12-28T06:22:33.356Z,97.59
2017-12-28T06:23:33.372Z,97.30
2017-12-28T06:24:33.388Z,97.59
2017-12-28T06:25:33.402Z,97.49
2017-12-28T06:26:33.419Z,97.97
2017-12-28T06:27:33.437Z,98.06
2017-12-28T06:28:33.450Z,98.54
2017-12-28T06:29:33.518Z,98.44
2017-12-28T06:30:33.481Z,98.72
2017-12-28T06:31:33.495Z,98.16
2017-12-28T06:32:33.511Z,98.44
2017-12-28T06:33:33.526Z,98.16
2017-12-28T06:34:33.542Z,98.63
2017-12-28T06:35:33.557Z,98.35
2017-12-28T06:36:33.574Z,99.29
2017-12-28T06:37:33.588Z,99.10
2017-12-28T06:38:33.605Z,99.29
2017-12-28T06:39:33.620Z,98.63
2017-12-28T06:40:33.636Z,98.91
2017-12-28T06:41:33.651Z,99.29
2017-12-28T06:42:33.667Z,99.20
2017-12-28T06:43:33.683Z,99.20
2017-12-28T06:44:33.849Z,99.10
2017-12-28T06:45:33.714Z,98.91
2017-12-28T06:46:33.980Z,98.25
2017-12-28T06:47:33.746Z,99.29
2017-12-28T06:48:33.762Z,99.20
2017-12-28T06:49:33.777Z,98.35
2017-12-28T06:50:33.792Z,98.72
2017-12-28T06:51:33.808Z,98.63
2017-12-28T06:52:33.824Z,98.91
2017-12-28T06:53:33.839Z,99.29
2017-12-28T06:54:33.855Z,99.39
2017-12-28T06:55:33.870Z,99.86
2017-12-28T06:56:33.886Z,99.77
2017-12-28T06:57:33.900Z,99.48
2017-12-28T06:58:33.918Z,99.39
2017-12-28T06:59:33.932Z,99.29
2017-12-28T07:00:33.949Z,99.29
2017-12-28T07:01:33.965Z,99.58
2017-12-28T07:02:33.979Z,99.77
2017-12-28T07:03:33.995Z,99.77
2017-12-28T07:04:34.012Z,99.86
2017-12-28T07:05:34.026Z,99.96
2017-12-28T07:06:34.043Z,99.48
2017-12-28T07:07:34.058Z,99.99
2017-12-28T07:08:34.074Z,99.99
2017-12-28T07:09:34.088Z,99.99
2017-12-28T07:10:34.105Z,99.77
2017-12-28T07:11:34.121Z,99.77
2017-12-28T07:12:34.137Z,99.58
2017-12-28T07:13:34.150Z,99.99
2017-12-28T07:14:34.166Z,99.99
2017-12-28T07:15:34.182Z,99.77
2017-12-28T07:16:34.198Z,99.99
2017-12-28T07:17:34.213Z,99.99
2017-12-28T07:18:34.229Z,99.99
2017-12-28T07:19:34.244Z,99.99
2017-12-28T07:20:34.261Z,99.96
2017-12-28T07:21:34.276Z,99.48
2017-12-28T07:22:34.292Z,99.86
2017-12-28T07:23:34.307Z,99.67
2017-12-28T07:24:34.322Z,99.99
2017-12-28T07:25:34.338Z,99.90
2017-12-28T07:26:34.353Z,99.99
2017-12-28T07:27:34.370Z,99.99
2017-12-28T07:28:34.384Z,99.96
2017-12-28T07:29:34.399Z,99.29
2017-12-28T07:30:34.414Z,99.67
2017-12-28T07:31:34.430Z,99.43
2017-12-28T07:32:34.446Z,99.39
2017-12-28T07:33:34.461Z,99.77
2017-12-28T07:34:34.477Z,99.96
2017-12-28T07:35:34.491Z,99.86
2017-12-28T07:36:34.507Z,99.52
2017-12-28T07:37:34.521Z,99.86
2017-12-28T07:38:34.538Z,99.99
2017-12-28T07:39:34.552Z,99.90
2017-12-28T07:40:34.570Z,99.71
2017-12-28T07:41:34.587Z,99.43
2017-12-28T07:42:34.599Z,99.39
2017-12-28T07:43:34.615Z,99.43
2017-12-28T07:44:34.631Z,99.86
2017-12-28T07:45:34.695Z,99.99
2017-12-28T07:46:34.661Z,99.99
2017-12-28T07:47:34.677Z,99.90
2017-12-28T07:48:34.692Z,99.48
2017-12-28T07:49:34.706Z,99.99
2017-12-28T07:50:34.723Z,99.81
2017-12-28T07:51:34.739Z,99.33
2017-12-28T07:52:34.753Z,99.90
2017-12-28T07:53:34.767Z,99.71
2017-12-28T07:54:34.784Z,99.43
2017-12-28T07:55:34.803Z,99.52
2017-12-28T07:56:34.815Z,99.99
2017-12-28T07:57:34.829Z,99.43
2017-12-28T07:58:34.845Z,99.33
2017-12-28T07:59:34.861Z,99.39
2017-12-28T08:00:34.876Z,99.52
2017-12-28T08:01:34.891Z,99.71
2017-12-28T08:02:34.906Z,99.33
2017-12-28T08:03:34.922Z,99.71
2017-12-28T08:04:34.938Z,99.67
2017-12-28T08:05:34.953Z,99.33
2017-12-28T08:06:34.968Z,99.20
2017-12-28T08:07:34.983Z,99.05
2017-12-28T08:08:34.998Z,99.52
2017-12-28T08:09:35.014Z,98.96
2017-12-28T08:10:35.029Z,99.43
2017-12-28T08:11:35.044Z,99.20
2017-12-28T08:12:35.060Z,99.24
2017-12-28T08:13:35.074Z,99.33
2017-12-28T08:14:35.090Z,99.62
2017-12-28T08:15:35.106Z,99.71
2017-12-28T08:16:35.122Z,99.24
2017-12-28T08:17:35.136Z,99.24
2017-12-28T08:18:35.151Z,99.15
2017-12-28T08:19:35.168Z,99.52
2017-12-28T08:20:35.183Z,99.71
2017-12-28T08:21:35.197Z,99.43
2017-12-28T08:22:35.215Z,99.52
2017-12-28T08:23:35.229Z,98.96
2017-12-28T08:24:35.246Z,98.86
2017-12-28T08:25:35.258Z,99.52
2017-12-28T08:26:35.273Z,99.15
2017-12-28T08:27:35.290Z,99.05
2017-12-28T08:28:35.305Z,99.62
2017-12-28T08:29:35.324Z,98.96
2017-12-28T08:30:35.336Z,99.15
2017-12-28T08:31:35.351Z,99.15
2017-12-28T08:32:35.366Z,99.24
2017-12-28T08:33:35.382Z,98.96
2017-12-28T08:34:35.396Z,99.05
2017-12-28T08:35:35.413Z,98.86
2017-12-28T08:36:35.429Z,99.15
2017-12-28T08:37:35.442Z,98.77
2017-12-28T08:38:35.457Z,98.82
2017-12-28T08:39:35.473Z,98.72
2017-12-28T08:40:35.489Z,98.77
2017-12-28T08:41:35.503Z,98.58
2017-12-28T08:42:35.519Z,98.77
2017-12-28T08:43:35.534Z,99.15
2017-12-28T08:44:35.550Z,99.15
2017-12-28T08:45:35.564Z,99.24
2017-12-28T08:46:35.581Z,99.10
2017-12-28T08:47:35.601Z,98.96
2017-12-28T08:48:35.614Z,98.86
2017-12-28T08:49:35.625Z,99.24
2017-12-28T08:50:35.640Z,98.96
2017-12-28T08:51:35.655Z,99.33
2017-12-28T08:52:35.675Z,99.39
2017-12-28T08:53:35.686Z,99.01
2017-12-28T08:54:35.702Z,99.43
2017-12-28T08:55:35.717Z,98.91
2017-12-28T08:56:35.732Z,98.49
2017-12-28T08:57:35.748Z,98.72
2017-12-28T08:58:35.763Z,98.63
2017-12-28T08:59:35.778Z,98.68
2017-12-28T09:00:35.794Z,98.58
2017-12-28T09:01:35.809Z,98.86
2017-12-28T09:02:35.824Z,98.96
2017-12-28T09:03:35.840Z,98.77
2017-12-28T09:04:35.854Z,98.86
2017-12-28T09:05:35.870Z,98.96
2017-12-28T09:06:35.885Z,99.58
2017-12-28T09:07:35.899Z,99.48
2017-12-28T09:08:35.915Z,99.10
2017-12-28T09:09:35.934Z,99.39
2017-12-28T09:10:35.948Z,99.29
2017-12-28T09:11:35.961Z,98.35
2017-12-28T09:12:35.978Z,98.63
2017-12-28T09:13:35.992Z,99.58
2017-12-28T09:14:36.008Z,99.39
2017-12-28T09:15:36.023Z,99.77
2017-12-28T09:16:36.039Z,98.82
2017-12-28T09:17:36.054Z,98.63
2017-12-28T09:18:36.071Z,98.44
2017-12-28T09:19:36.141Z,98.63
2017-12-28T09:20:36.099Z,98.16
2017-12-28T09:21:36.115Z,98.16
2017-12-28T09:22:36.130Z,98.44
2017-12-28T09:23:36.145Z,98.16
2017-12-28T09:24:36.162Z,98.91
2017-12-28T09:25:36.176Z,98.44
2017-12-28T09:26:36.197Z,98.63
2017-12-28T09:27:36.265Z,97.78
2017-12-28T09:28:36.224Z,97.49
2017-12-28T09:29:36.238Z,96.83
2017-12-28T09:30:36.254Z,97.21
2017-12-28T09:31:36.269Z,96.83
2017-12-28T09:32:36.288Z,96.45
2017-12-28T09:33:36.300Z,96.26
2017-12-28T09:34:36.316Z,95.88
2017-12-28T09:35:36.332Z,97.02
2017-12-28T09:36:36.350Z,97.40
2017-12-28T09:37:36.363Z,97.30
2017-12-28T09:38:36.378Z,97.78
2017-12-28T09:39:36.394Z,96.45
2017-12-28T09:40:36.442Z,96.73
2017-12-28T09:41:36.423Z,96.83
2017-12-28T09:42:36.439Z,96.55
2017-12-28T09:43:36.556Z,96.73
2017-12-28T09:44:36.472Z,96.83
2017-12-28T09:45:36.489Z,96.36
2017-12-28T09:46:36.502Z,97.02
2017-12-28T09:47:36.519Z,96.45
2017-12-28T09:48:36.533Z,96.26
2017-12-28T09:49:36.549Z,96.36
2017-12-28T09:50:36.565Z,97.21
2017-12-28T09:51:36.582Z,97.02
2017-12-28T09:52:36.597Z,96.64
2017-12-28T09:53:36.612Z,96.64
2017-12-28T09:54:36.627Z,96.26
2017-12-28T09:55:36.643Z,96.50
2017-12-28T09:56:36.662Z,95.55
2017-12-28T09:57:36.675Z,95.17
2017-12-28T09:58:36.691Z,96.03
2017-12-28T09:59:36.708Z,94.79
2017-12-28T10:00:36.722Z,95.26
2017-12-28T10:01:36.739Z,95.17
2017-12-28T10:02:36.755Z,95.17
2017-12-28T10:03:36.771Z,94.42
2017-12-28T10:04:36.789Z,93.84
2017-12-28T10:05:36.804Z,93.27
2017-12-28T10:06:36.822Z,92.52
2017-12-28T10:07:36.835Z,92.90
2017-12-28T10:08:36.851Z,93.18
2017-12-28T10:09:36.868Z,94.70
2017-12-28T10:10:36.891Z,94.70
2017-12-28T10:11:36.900Z,94.51
2017-12-28T10:12:36.916Z,94.32
2017-12-28T10:13:36.933Z,93.56
2017-12-28T10:14:36.949Z,93.41
2017-12-28T10:15:36.971Z,92.28
2017-12-28T10:16:36.981Z,91.99
2017-12-28T10:17:36.998Z,91.14
2017-12-28T10:18:37.015Z,91.42
2017-12-28T10:19:37.032Z,91.95
2017-12-28T10:20:37.048Z,92.71
2017-12-28T10:21:37.065Z,92.52
2017-12-28T10:22:37.090Z,93.37
2017-12-28T10:23:37.099Z,92.80
2017-12-28T10:24:37.115Z,92.52
2017-12-28T10:25:37.131Z,92.52
2017-12-28T10:26:37.147Z,92.61
2017-12-28T10:27:37.163Z,92.52
2017-12-28T10:28:37.181Z,92.14
2017-12-28T10:29:37.198Z,92.23
2017-12-28T10:30:37.213Z,91.66
2017-12-28T10:31:37.229Z,91.38
2017-12-28T10:32:37.262Z,91.38
2017-12-28T10:33:37.262Z,91.80
2017-12-28T10:34:37.279Z,90.86
2017-12-28T10:35:37.296Z,90.57
2017-12-28T10:36:37.312Z,90.57
2017-12-28T10:37:37.327Z,89.53
2017-12-28T10:38:37.344Z,89.53
2017-12-28T10:39:37.360Z,90.00
2017-12-28T10:40:37.378Z,89.81
2017-12-28T10:41:37.422Z,90.00
2017-12-28T10:42:37.409Z,90.00
2017-12-28T10:43:37.426Z,89.53
2017-12-28T10:44:38.044Z,89.06
2017-12-28T10:45:37.475Z,89.48
2017-12-28T10:46:37.525Z,89.34
2017-12-28T10:47:37.492Z,89.39
2017-12-28T10:48:37.509Z,89.62
2017-12-28T10:49:37.525Z,89.25
2017-12-28T10:50:37.541Z,88.68
2017-12-28T10:51:37.557Z,88.20
2017-12-28T10:52:37.573Z,88.10
2017-12-28T10:53:37.589Z,87.45
2017-12-28T10:54:37.605Z,88.20
2017-12-28T10:55:37.626Z,87.45
2017-12-28T10:56:37.640Z,87.35
2017-12-28T10:57:37.654Z,87.63
2017-12-28T10:58:37.672Z,87.73
2017-12-28T10:59:37.689Z,87.16
2017-12-28T11:00:37.704Z,87.06
2017-12-28T11:01:37.770Z,86.59
2017-12-28T11:02:37.736Z,86.49
2017-12-28T11:03:37.753Z,86.78
2017-12-28T11:04:37.770Z,86.78
2017-12-28T11:05:37.784Z,86.59
2017-12-28T11:06:37.801Z,86.30
2017-12-28T11:07:37.817Z,86.11
2017-12-28T11:08:37.834Z,85.55
2017-12-28T11:09:37.850Z,85.17
2017-12-28T11:10:37.866Z,85.17
2017-12-28T11:11:37.885Z,85.55
2017-12-28T11:12:37.900Z,85.45
2017-12-28T11:13:37.914Z,85.45
2017-12-28T11:14:37.931Z,85.83
2017-12-28T11:15:37.948Z,85.93
2017-12-28T11:16:37.965Z,85.93
2017-12-28T11:17:37.979Z,86.21
2017-12-28T11:18:37.995Z,85.83
2017-12-28T11:19:38.013Z,85.64
2017-12-28T11:20:38.030Z,85.45
2017-12-28T11:21:38.047Z,85.17
2017-12-28T11:22:38.062Z,85.55
2017-12-28T11:23:38.079Z,86.02
2017-12-28T11:24:38.095Z,86.11
2017-12-28T11:25:38.111Z,85.74
2017-12-28T11:26:38.127Z,86.02
2017-12-28T11:27:38.144Z,85.64
2017-12-28T11:28:38.159Z,86.30
2017-12-28T11:29:38.176Z,86.30
2017-12-28T11:30:38.192Z,85.64
2017-12-28T11:31:38.209Z,85.93
2017-12-28T11:32:38.225Z,85.93
2017-12-28T11:33:38.242Z,85.93
2017-12-28T11:34:38.258Z,85.45
2017-12-28T11:35:38.275Z,85.36
2017-12-28T11:36:38.291Z,85.74
2017-12-28T11:37:38.306Z,85.36
2017-12-28T11:38:38.324Z,85.26
2017-12-28T11:39:38.341Z,84.59
2017-12-28T11:40:38.356Z,84.41
2017-12-28T11:41:38.374Z,84.78
2017-12-28T11:42:38.395Z,84.55
2017-12-28T11:43:38.407Z,84.45
2017-12-28T11:44:38.423Z,84.41
2017-12-28T11:45:38.440Z,84.17
2017-12-28T11:46:38.456Z,84.83
2017-12-28T11:47:38.473Z,83.94
2017-12-28T11:48:38.490Z,84.17
2017-12-28T11:49:38.504Z,84.69
2017-12-28T11:50:38.549Z,83.84
2017-12-28T11:51:38.539Z,84.59
2017-12-28T11:52:38.559Z,84.92
2017-12-28T11:53:38.572Z,84.74
2017-12-28T11:54:38.589Z,83.88
2017-12-28T11:55:38.605Z,84.64
2017-12-28T11:56:38.622Z,84.45
2017-12-28T11:57:38.639Z,83.97
2017-12-28T11:58:38.654Z,83.97
2017-12-28T11:59:38.673Z,84.17
2017-12-28T12:00:38.689Z,83.88
2017-12-28T12:01:38.706Z,83.65
2017-12-28T12:02:38.723Z,83.94
2017-12-28T12:03:38.740Z,84.07
2017-12-28T12:04:38.757Z,83.50
2017-12-28T12:05:38.772Z,83.12
2017-12-28T12:06:38.790Z,82.84
2017-12-28T12:07:39.009Z,82.04
2017-12-28T12:08:38.823Z,82.55
2017-12-28T12:09:38.839Z,82.60
2017-12-28T12:10:39.006Z,82.55
2017-12-28T12:11:38.881Z,82.51
2017-12-28T12:12:38.890Z,82.70
2017-12-28T12:13:38.956Z,82.04
2017-12-28T12:14:38.923Z,82.51
2017-12-28T12:15:38.940Z,81.88
2017-12-28T12:16:38.956Z,81.37
2017-12-28T12:17:38.972Z,81.51
2017-12-28T12:18:38.988Z,81.75
2017-12-28T12:19:39.005Z,81.18
2017-12-28T12:20:39.023Z,81.56
2017-12-28T12:21:39.039Z,80.71
2017-12-28T12:22:39.056Z,80.84
2017-12-28T12:23:39.073Z,81.13
2017-12-28T12:24:39.089Z,81.23
2017-12-28T12:25:39.105Z,80.94
2017-12-28T12:26:39.121Z,80.94
2017-12-28T12:27:39.137Z,81.51
2017-12-28T12:28:39.154Z,80.65
2017-12-28T12:29:39.171Z,80.56
2017-12-28T12:30:39.187Z,80.56
2017-12-28T12:31:39.205Z,80.56
2017-12-28T12:32:39.222Z,81.04
2017-12-28T12:33:39.238Z,81.04
2017-12-28T12:34:39.256Z,80.46
2017-12-28T12:35:39.271Z,80.65
2017-12-28T12:36:39.289Z,81.04
2017-12-28T12:37:39.304Z,79.99
2017-12-28T12:38:39.320Z,80.37
2017-12-28T12:39:39.338Z,80.43
2017-12-28T12:40:39.355Z,80.46
2017-12-28T12:41:39.371Z,79.90
2017-12-28T12:42:39.388Z,80.18
2017-12-28T12:43:39.405Z,80.08
2017-12-28T12:44:39.422Z,80.14
2017-12-28T12:45:39.436Z,79.66
2017-12-28T12:46:39.454Z,80.08
2017-12-28T12:47:39.474Z,80.27
2017-12-28T12:48:39.489Z,79.61
2017-12-28T12:49:39.504Z,79.85
2017-12-28T12:50:39.521Z,79.28
2017-12-28T12:51:39.537Z,79.10
2017-12-28T12:52:39.553Z,79.57